createdAt,value
2018-03-24T00:02:05.250Z,26.70
2018-03-24T00:04:31.831Z,26.33
2018-03-24T00:06:58.356Z,26.98
2018-03-24T00:09:24.882Z,24.67
2018-03-24T00:11:51.397Z,25.73
2018-03-24T00:14:17.943Z,26.48
2018-03-24T00:16:44.400Z,24.65
2018-03-24T00:19:10.912Z,23.52
2018-03-24T00:21:37.386Z,25.58
2018-03-24T00:24:03.863Z,24.45
2018-03-24T00:26:30.325Z,24.35
2018-03-24T00:28:56.836Z,24.77
2018-03-24T00:31:24.751Z,22.58
2018-03-24T00:33:51.944Z,26.20
2018-03-24T00:36:18.622Z,23.02
2018-03-24T00:38:45.955Z,23.75
2018-03-24T00:41:12.436Z,24.30
2018-03-24T00:43:39.043Z,23.98
2018-03-24T00:46:05.658Z,25.98
2018-03-24T00:48:32.183Z,23.12
2018-03-24T00:50:58.681Z,26.37
2018-03-24T00:53:25.150Z,26.20
2018-03-24T00:55:51.613Z,24.30
2018-03-24T00:58:18.070Z,26.40
2018-03-24T01:00:44.548Z,28.58
2018-03-24T01:03:11.029Z,26.83
2018-03-24T01:05:37.527Z,23.75
2018-03-24T01:08:03.991Z,25.50
2018-03-24T01:10:30.570Z,25.33
2018-03-24T01:12:57.779Z,24.40
2018-03-24T01:15:24.312Z,24.90
2018-03-24T01:17:50.897Z,23.67
2018-03-24T01:20:18.179Z,24.42
2018-03-24T01:22:45.436Z,22.52
2018-03-24T01:25:11.893Z,23.73
2018-03-24T01:27:38.352Z,26.80
2018-03-24T01:30:05.523Z,25.67
2018-03-24T01:32:32.749Z,25.48
2018-03-24T01:34:59.209Z,26.80
2018-03-24T01:37:25.687Z,27.67
2018-03-24T01:39:52.153Z,25.77
2018-03-24T01:42:19.460Z,26.62
2018-03-24T01:44:45.909Z,24.95
2018-03-24T01:47:12.466Z,23.45
2018-03-24T01:49:38.941Z,25.40
2018-03-24T01:52:05.486Z,22.95
2018-03-24T01:54:31.973Z,25.25
2018-03-24T01:56:58.522Z,13.73
2018-03-24T01:59:25.827Z,21.73
2018-03-24T02:01:52.280Z,16.35
2018-03-24T02:04:18.744Z,22.05
2018-03-24T02:06:46.043Z,14.75
2018-03-24T02:09:12.529Z,11.52
2018-03-24T02:11:39.735Z,22.20
2018-03-24T02:14:06.291Z,18.42
2018-03-24T02:16:32.740Z,16.20
2018-03-24T02:18:59.999Z,15.25
2018-03-24T02:21:30.153Z,16.55
2018-03-24T02:23:56.614Z,12.65
2018-03-24T02:26:23.203Z,14.70
2018-03-24T02:28:50.424Z,13.23
2018-03-24T02:31:16.912Z,18.25
2018-03-24T02:33:43.377Z,15.38
2018-03-24T02:36:09.813Z,15.82
2018-03-24T02:38:36.300Z,21.83
2018-03-24T02:41:02.819Z,16.05
2018-03-24T02:43:30.108Z,20.48
2018-03-24T02:45:56.596Z,22.62
2018-03-24T02:48:23.923Z,19.33
2018-03-24T02:50:50.402Z,18.40
2018-03-24T02:53:16.858Z,19.17
2018-03-24T02:55:43.317Z,18.23
2018-03-24T02:58:09.824Z,24.30
2018-03-24T03:00:36.289Z,24.75
2018-03-24T03:03:02.790Z,26.77
2018-03-24T03:05:29.278Z,25.12
2018-03-24T03:07:55.799Z,17.25
2018-03-24T03:10:22.299Z,27.25
2018-03-24T03:12:48.846Z,20.80
2018-03-24T03:15:15.364Z,22.62
2018-03-24T03:17:41.886Z,23.60
2018-03-24T03:20:08.453Z,23.25
2018-03-24T03:22:35.067Z,15.65
2018-03-24T03:25:01.580Z,23.45
2018-03-24T03:27:28.836Z,14.32
2018-03-24T03:29:56.027Z,13.65
2018-03-24T03:32:25.506Z,11.77
2018-03-24T03:34:51.999Z,21.12
2018-03-24T03:37:18.812Z,18.27
2018-03-24T03:39:45.320Z,23.77
2018-03-24T03:42:11.866Z,20.08
2018-03-24T03:44:38.352Z,17.02
2018-03-24T03:47:04.868Z,24.12
2018-03-24T03:49:31.344Z,23.45
2018-03-24T03:51:57.860Z,12.48
2018-03-24T03:54:25.048Z,20.12
2018-03-24T03:56:51.544Z,19.73
2018-03-24T03:59:18.961Z,20.10
2018-03-24T04:01:45.430Z,16.92
2018-03-24T04:04:11.937Z,13.40
2018-03-24T04:06:38.392Z,21.58
2018-03-24T04:09:04.895Z,23.02
2018-03-24T04:11:31.362Z,26.23
2018-03-24T04:13:59.202Z,21.10
2018-03-24T04:16:25.763Z,19.52
2018-03-24T04:18:52.302Z,21.48
2018-03-24T04:21:19.553Z,28.35
2018-03-24T04:23:46.766Z,23.17
2018-03-24T04:26:13.361Z,20.30
2018-03-24T04:28:40.613Z,25.17
2018-03-24T04:31:07.833Z,25.77
2018-03-24T04:33:34.331Z,15.43
2018-03-24T04:36:00.853Z,23.02
2018-03-24T04:38:27.349Z,22.42
2018-03-24T04:40:53.876Z,24.45
2018-03-24T04:43:21.199Z,25.90
2018-03-24T04:45:47.693Z,23.45
2018-03-24T04:48:14.900Z,27.23
2018-03-24T04:50:42.225Z,24.77
2018-03-24T04:53:08.861Z,22.15
2018-03-24T04:55:35.330Z,29.40
2018-03-24T04:58:01.796Z,26.27
2018-03-24T05:00:29.047Z,29.08
2018-03-24T05:02:56.278Z,21.75
2018-03-24T05:05:22.872Z,28.20
2018-03-24T05:07:49.306Z,29.20
2018-03-24T05:10:15.809Z,27.45
2018-03-24T05:12:42.996Z,22.92
2018-03-24T05:15:09.527Z,27.40
2018-03-24T05:17:36.096Z,28.65
2018-03-24T05:20:02.584Z,25.50
2018-03-24T05:22:29.130Z,27.37
2018-03-24T05:24:55.620Z,26.37
2018-03-24T05:27:22.935Z,25.75
2018-03-24T05:29:49.611Z,27.50
2018-03-24T05:32:16.899Z,30.25
2018-03-24T05:34:43.389Z,27.23
2018-03-24T05:37:09.867Z,28.50
2018-03-24T05:39:36.356Z,27.10
2018-03-24T05:42:02.834Z,25.65
2018-03-24T05:44:29.347Z,28.98
2018-03-24T05:46:56.547Z,28.15
2018-03-24T05:49:23.079Z,26.10
2018-03-24T05:51:49.541Z,26.85
2018-03-24T05:54:16.077Z,26.60
2018-03-24T05:56:42.516Z,24.00
2018-03-24T05:59:08.993Z,22.65
2018-03-24T06:01:35.598Z,22.90
2018-03-24T06:04:02.829Z,23.20
2018-03-24T06:06:29.316Z,22.52
2018-03-24T06:08:55.806Z,22.05
2018-03-24T06:11:22.271Z,24.87
2018-03-24T06:13:48.703Z,25.70
2018-03-24T06:16:15.249Z,22.35
2018-03-24T06:18:41.727Z,18.65
2018-03-24T06:21:08.214Z,24.65
2018-03-24T06:23:34.741Z,17.08
2018-03-24T06:26:01.175Z,21.55
2018-03-24T06:28:27.739Z,21.83
2018-03-24T06:31:09.027Z,22.40
2018-03-24T06:33:35.527Z,16.45
2018-03-24T06:36:16.931Z,10.93
2018-03-24T06:38:43.422Z,22.85
2018-03-24T06:41:09.894Z,21.37
2018-03-24T06:43:36.434Z,12.40
2018-03-24T06:46:02.936Z,19.60
2018-03-24T06:48:30.168Z,16.87
2018-03-24T06:50:56.657Z,19.15
2018-03-24T06:53:23.108Z,13.70
2018-03-24T06:55:49.599Z,17.65
2018-03-24T06:58:16.113Z,14.95
2018-03-24T07:00:43.343Z,9.68
2018-03-24T07:03:09.846Z,18.50
2018-03-24T07:05:37.276Z,15.02
2018-03-24T07:08:03.771Z,20.45
2018-03-24T07:10:30.310Z,21.42
2018-03-24T07:12:56.911Z,14.32
2018-03-24T07:15:23.502Z,13.18
2018-03-24T07:17:50.671Z,15.23
2018-03-24T07:20:17.203Z,12.10
2018-03-24T07:22:43.903Z,20.35
2018-03-24T07:25:10.416Z,19.20
2018-03-24T07:27:36.911Z,16.62
2018-03-24T07:30:03.383Z,14.65
2018-03-24T07:32:29.913Z,13.85
2018-03-24T07:34:56.382Z,21.00
2018-03-24T07:37:23.771Z,13.10
2018-03-24T07:39:50.305Z,14.70
2018-03-24T07:42:16.860Z,17.45
2018-03-24T07:44:43.395Z,19.57
2018-03-24T07:47:09.895Z,16.27
2018-03-24T07:49:37.101Z,12.63
2018-03-24T07:52:03.575Z,13.73
2018-03-24T07:54:30.867Z,11.35
2018-03-24T07:56:57.312Z,15.70
2018-03-24T07:59:31.035Z,14.37
2018-03-24T08:01:57.491Z,11.83
2018-03-24T08:04:24.887Z,12.37
2018-03-24T08:06:51.340Z,11.80
2018-03-24T08:09:26.018Z,11.98
2018-03-24T08:11:53.271Z,12.75
2018-03-24T08:14:20.545Z,14.00
2018-03-24T08:16:47.006Z,16.42
2018-03-24T08:19:13.499Z,12.70
2018-03-24T08:21:39.966Z,11.05
2018-03-24T08:24:06.645Z,12.32
2018-03-24T08:26:33.080Z,10.82
2018-03-24T08:28:59.665Z,11.07
2018-03-24T08:31:26.298Z,14.23
2018-03-24T08:33:52.773Z,8.63
2018-03-24T08:36:19.286Z,7.60
2018-03-24T08:38:45.887Z,11.10
2018-03-24T08:41:12.431Z,10.10
2018-03-24T08:43:38.912Z,10.00
2018-03-24T08:46:05.644Z,9.20
2018-03-24T08:48:32.243Z,6.70
2018-03-24T08:50:58.907Z,9.82
2018-03-24T08:53:26.301Z,10.65
2018-03-24T08:55:53.530Z,9.35
2018-03-24T08:58:20.087Z,8.52
2018-03-24T09:00:59.010Z,10.50
2018-03-24T09:03:26.291Z,6.97
2018-03-24T09:05:52.794Z,11.70
2018-03-24T09:08:20.080Z,9.05
2018-03-24T09:10:46.604Z,7.70
2018-03-24T09:13:13.139Z,7.60
2018-03-24T09:15:39.683Z,10.05
2018-03-24T09:18:06.257Z,7.10
2018-03-24T09:20:32.768Z,6.25
2018-03-24T09:22:59.295Z,5.75
2018-03-24T09:25:25.769Z,8.38
2018-03-24T09:27:52.391Z,7.97
2018-03-24T09:30:18.877Z,4.90
2018-03-24T09:32:46.144Z,5.45
2018-03-24T09:35:12.881Z,5.00
2018-03-24T09:37:39.402Z,8.73
2018-03-24T09:40:06.045Z,6.53
2018-03-24T09:42:33.342Z,7.32
2018-03-24T09:44:59.807Z,7.82
2018-03-24T09:47:26.360Z,6.53
2018-03-24T09:49:53.080Z,8.50
2018-03-24T09:52:19.582Z,7.07
2018-03-24T09:54:46.317Z,7.32
2018-03-24T09:57:12.823Z,6.53
2018-03-24T09:59:39.322Z,6.17
2018-03-24T10:02:05.700Z,6.10
2018-03-24T10:04:32.137Z,6.15
2018-03-24T10:06:58.559Z,6.20
2018-03-24T10:09:25.071Z,6.20
2018-03-24T10:11:52.494Z,5.67
2018-03-24T10:14:19.258Z,5.20
2018-03-24T10:16:46.584Z,5.70
2018-03-24T10:19:13.235Z,5.62
2018-03-24T10:24:38.531Z,5.50
2018-03-24T10:27:04.958Z,4.97
2018-03-24T10:29:31.464Z,7.40
2018-03-24T10:31:58.006Z,7.50
2018-03-24T10:34:25.503Z,8.43
2018-03-24T10:36:52.040Z,9.37
2018-03-24T10:39:18.544Z,7.83
2018-03-24T10:41:44.978Z,6.50
2018-03-24T10:44:12.143Z,7.37
2018-03-24T10:46:38.621Z,5.07
2018-03-24T10:49:05.054Z,4.20
2018-03-24T10:51:31.549Z,6.50
2018-03-24T10:53:57.903Z,5.90
2018-03-24T10:56:24.371Z,6.40
2018-03-24T10:58:50.772Z,6.72
2018-03-24T11:01:20.091Z,6.10
2018-03-24T11:03:46.666Z,5.43
2018-03-24T11:06:13.805Z,7.43
2018-03-24T11:08:40.995Z,5.03
2018-03-24T11:11:07.519Z,4.90
2018-03-24T11:13:34.276Z,5.37
2018-03-24T11:16:00.780Z,5.27
2018-03-24T11:18:27.278Z,8.60
2018-03-24T11:20:53.736Z,5.20
2018-03-24T11:23:20.412Z,6.30
2018-03-24T11:25:46.973Z,7.90
2018-03-24T11:28:13.606Z,6.00
2018-03-24T11:30:40.813Z,7.73
2018-03-24T11:33:07.304Z,3.83
2018-03-24T11:35:33.778Z,8.30
2018-03-24T11:38:00.282Z,8.53
2018-03-24T11:40:26.759Z,7.97
2018-03-24T11:42:53.197Z,6.17
2018-03-24T11:45:19.836Z,6.47
2018-03-24T11:47:46.306Z,6.17
2018-03-24T11:50:12.768Z,6.87
2018-03-24T11:52:39.129Z,6.37
2018-03-24T11:55:05.589Z,6.57
2018-03-24T11:57:32.091Z,7.63
2018-03-24T12:00:04.486Z,8.97
2018-03-24T12:02:30.883Z,5.40
2018-03-24T12:04:57.376Z,6.07
2018-03-24T12:07:23.871Z,6.97
2018-03-24T12:09:50.289Z,8.73
2018-03-24T12:12:16.762Z,7.47
2018-03-24T12:14:43.289Z,5.67
2018-03-24T12:17:09.764Z,5.43
2018-03-24T12:19:36.665Z,9.93
2018-03-24T12:22:03.046Z,7.27
2018-03-24T12:24:30.202Z,4.90
2018-03-24T12:26:56.905Z,7.33
2018-03-24T12:29:23.281Z,6.97
2018-03-24T12:31:49.687Z,7.43
2018-03-24T12:34:16.804Z,9.07
2018-03-24T12:36:43.250Z,7.47
2018-03-24T12:39:09.605Z,8.60
2018-03-24T12:41:36.051Z,11.47
2018-03-24T12:44:03.295Z,8.20
2018-03-24T12:46:31.031Z,9.90
2018-03-24T12:48:58.311Z,9.33
2018-03-24T12:51:25.512Z,6.93
2018-03-24T12:53:51.910Z,7.00
2018-03-24T12:56:18.386Z,5.87
2018-03-24T12:58:44.784Z,6.63
2018-03-24T13:01:11.309Z,10.07
2018-03-24T13:03:37.719Z,8.17
2018-03-24T13:06:04.144Z,6.93
2018-03-24T13:08:31.495Z,9.17
2018-03-24T13:10:58.578Z,7.20
2018-03-24T13:13:25.009Z,6.23
2018-03-24T13:15:51.442Z,5.93
2018-03-24T13:18:17.930Z,11.00
2018-03-24T13:20:44.320Z,9.20
2018-03-24T13:23:11.532Z,11.60
2018-03-24T13:25:38.819Z,8.93
2018-03-24T13:28:05.388Z,8.33
2018-03-24T13:30:31.794Z,13.17
2018-03-24T13:32:58.351Z,7.67
2018-03-24T13:35:24.858Z,10.90
2018-03-24T13:37:51.345Z,8.10
2018-03-24T13:40:18.617Z,6.17
2018-03-24T13:42:44.984Z,10.13
2018-03-24T13:45:11.380Z,12.27
2018-03-24T13:47:37.724Z,12.60
2018-03-24T13:50:04.111Z,6.97
2018-03-24T13:52:30.473Z,11.83
2018-03-24T13:54:56.946Z,8.40
2018-03-24T13:57:24.123Z,11.10
2018-03-24T13:59:50.483Z,12.30
2018-03-24T14:02:16.860Z,12.17
2018-03-24T14:04:43.326Z,11.73
2018-03-24T14:07:09.900Z,7.77
2018-03-24T14:09:36.241Z,10.10
2018-03-24T14:12:03.950Z,11.30
2018-03-24T14:14:30.457Z,10.60
2018-03-24T14:16:57.067Z,8.70
2018-03-24T14:19:23.449Z,10.30
2018-03-24T14:21:49.834Z,10.00
2018-03-24T14:24:16.211Z,6.87
2018-03-24T14:26:42.612Z,8.17
2018-03-24T14:29:09.841Z,8.60
2018-03-24T14:31:36.296Z,7.80
2018-03-24T14:34:02.796Z,12.50
2018-03-24T14:36:29.208Z,11.10
2018-03-24T14:38:56.372Z,9.30
2018-03-24T14:41:23.580Z,12.73
2018-03-24T14:43:50.137Z,8.00
2018-03-24T14:46:17.431Z,10.77
2018-03-24T14:48:44.047Z,13.03
2018-03-24T14:51:10.433Z,13.40
2018-03-24T14:53:36.914Z,11.93
2018-03-24T14:56:03.461Z,13.17
2018-03-24T14:58:29.926Z,11.90
2018-03-24T15:00:56.341Z,12.77
2018-03-24T15:03:22.796Z,10.40
2018-03-24T15:05:49.238Z,14.00
2018-03-24T15:08:16.696Z,12.57
2018-03-24T15:10:45.672Z,10.53
2018-03-24T15:13:12.091Z,14.40
2018-03-24T15:15:38.626Z,14.10
2018-03-24T15:18:05.072Z,12.70
2018-03-24T15:20:31.637Z,9.13
2018-03-24T15:22:58.913Z,11.73
2018-03-24T15:25:25.361Z,14.03
2018-03-24T15:27:51.895Z,8.80
2018-03-24T15:30:30.597Z,8.10
2018-03-24T15:33:09.306Z,8.67
2018-03-24T15:35:36.538Z,10.93
2018-03-24T15:38:02.948Z,8.93
2018-03-24T15:40:30.159Z,12.57
2018-03-24T15:42:56.591Z,7.50
2018-03-24T15:45:23.125Z,12.33
2018-03-24T15:47:50.645Z,12.97
2018-03-24T15:50:17.269Z,10.77
2018-03-24T15:52:43.737Z,8.97
2018-03-24T15:55:10.872Z,9.57
2018-03-24T15:57:37.335Z,11.10
2018-03-24T16:00:03.794Z,11.63
2018-03-24T16:02:30.268Z,12.10
2018-03-24T16:04:56.819Z,10.47
2018-03-24T16:07:24.002Z,11.27
2018-03-24T16:09:50.538Z,9.23
2018-03-24T16:12:17.078Z,7.93
2018-03-24T16:14:43.614Z,8.93
2018-03-24T16:17:10.790Z,11.07
2018-03-24T16:19:37.247Z,9.20
2018-03-24T16:22:04.431Z,11.83
2018-03-24T16:24:30.893Z,7.80
2018-03-24T16:26:57.300Z,8.43
2018-03-24T16:29:23.877Z,11.80
2018-03-24T16:31:50.437Z,8.40
2018-03-24T16:34:17.702Z,6.27
2018-03-24T16:36:44.196Z,10.83
2018-03-24T16:39:10.696Z,9.10
2018-03-24T16:41:37.143Z,7.50
2018-03-24T16:44:04.681Z,10.17
2018-03-24T16:46:31.060Z,12.10
2018-03-24T16:48:57.575Z,12.00
2018-03-24T16:51:24.728Z,11.73
2018-03-24T16:53:51.304Z,11.13
2018-03-24T16:56:18.543Z,13.53
2018-03-24T16:58:45.800Z,12.87
2018-03-24T17:01:13.023Z,13.37
2018-03-24T17:03:40.043Z,9.83
2018-03-24T17:06:06.746Z,12.47
2018-03-24T17:08:33.270Z,12.30
2018-03-24T17:11:00.491Z,11.20
2018-03-24T17:13:26.925Z,10.90
2018-03-24T17:15:53.405Z,10.25
2018-03-24T17:18:19.837Z,12.15
2018-03-24T17:20:46.307Z,9.15
2018-03-24T17:23:12.727Z,14.57
2018-03-24T17:25:39.215Z,12.40
2018-03-24T17:28:05.672Z,11.93
2018-03-24T17:30:33.093Z,16.45
2018-03-24T17:32:59.583Z,14.65
2018-03-24T17:35:27.739Z,14.05
2018-03-24T17:37:55.105Z,13.93
2018-03-24T17:40:21.566Z,15.13
2018-03-24T17:42:48.134Z,13.23
2018-03-24T17:45:15.786Z,14.02
2018-03-24T17:47:43.148Z,13.95
2018-03-24T17:59:54.708Z,15.02
2018-03-24T18:02:21.187Z,17.08
2018-03-24T18:04:47.744Z,17.45
2018-03-24T18:07:14.237Z,16.20
2018-03-24T18:09:40.678Z,16.90
2018-03-24T18:12:08.029Z,16.15
2018-03-24T18:14:34.530Z,16.35
2018-03-24T18:17:01.022Z,19.55
2018-03-24T18:19:27.532Z,17.50
2018-03-24T18:21:53.963Z,19.25
2018-03-24T18:24:20.432Z,16.67
2018-03-24T18:26:46.907Z,16.75
2018-03-24T18:29:13.413Z,14.38
2018-03-24T18:31:40.588Z,18.08
2018-03-24T18:34:07.176Z,19.48
2018-03-24T18:36:33.614Z,17.62
2018-03-24T18:39:00.087Z,17.33
2018-03-24T18:41:26.555Z,16.50
2018-03-24T18:43:53.726Z,18.50
2018-03-24T18:46:20.291Z,18.70
2018-03-24T18:48:47.570Z,17.87
2018-03-24T18:51:14.005Z,16.80
2018-03-24T18:53:40.514Z,18.85
2018-03-24T18:56:07.726Z,15.18
2018-03-24T18:58:34.150Z,18.10
2018-03-24T19:01:00.657Z,19.23
2018-03-24T19:03:27.101Z,19.52
2018-03-24T19:05:53.578Z,18.12
2018-03-24T19:08:20.783Z,15.93
2018-03-24T19:10:47.387Z,17.23
2018-03-24T19:13:14.628Z,18.60
2018-03-24T19:15:41.857Z,16.45
2018-03-24T19:18:08.385Z,18.87
2018-03-24T19:20:34.968Z,19.00
2018-03-24T19:23:01.417Z,18.02
2018-03-24T19:25:27.976Z,18.40
2018-03-24T19:27:54.599Z,18.90
2018-03-24T19:30:21.043Z,17.23
2018-03-24T19:32:47.694Z,18.70
2018-03-24T19:35:14.140Z,18.65
2018-03-24T19:37:40.651Z,17.55
2018-03-24T19:40:07.121Z,21.33
2018-03-24T19:42:34.310Z,22.98
2018-03-24T19:45:00.752Z,21.40
2018-03-24T19:47:27.280Z,18.90
2018-03-24T19:49:53.742Z,18.70
2018-03-24T19:52:20.227Z,15.95
2018-03-24T19:54:46.759Z,16.92
2018-03-24T19:57:13.239Z,16.20
2018-03-24T19:59:39.810Z,17.77
2018-03-24T20:02:07.116Z,17.10
2018-03-24T20:04:33.569Z,17.80
2018-03-24T20:07:03.251Z,17.45
2018-03-24T20:09:32.631Z,20.10
2018-03-24T20:12:04.751Z,19.37
2018-03-24T20:14:32.707Z,19.77
2018-03-24T20:17:00.859Z,19.40
2018-03-24T20:19:30.029Z,21.60
2018-03-24T20:21:59.891Z,23.42
2018-03-24T20:24:28.022Z,25.75
2018-03-24T20:26:55.035Z,22.20
2018-03-24T20:29:22.260Z,19.55
2018-03-24T20:31:48.686Z,20.88
2018-03-24T20:34:15.167Z,20.77
2018-03-24T20:36:41.650Z,22.10
2018-03-24T20:39:08.135Z,24.15
2018-03-24T20:41:36.206Z,22.70
2018-03-24T20:47:01.494Z,21.50
2018-03-24T20:49:28.071Z,20.23
2018-03-24T20:51:55.934Z,18.60
2018-03-24T20:54:23.671Z,20.00
2018-03-24T20:56:50.247Z,22.58
2018-03-24T20:59:17.674Z,22.87
2018-03-24T21:01:44.299Z,20.65
2018-03-24T21:04:10.828Z,20.17
2018-03-24T21:06:38.284Z,21.00
2018-03-24T21:09:04.987Z,20.90
2018-03-24T21:11:35.254Z,20.37
2018-03-24T21:14:02.058Z,23.67
2018-03-24T21:16:28.532Z,22.02
2018-03-24T21:18:55.805Z,22.13
2018-03-24T21:21:23.036Z,20.95
2018-03-24T21:23:49.612Z,21.58
2018-03-24T21:26:16.115Z,22.52
2018-03-24T21:28:44.923Z,23.25
2018-03-24T21:31:11.571Z,21.83
2018-03-24T21:33:38.157Z,21.30
2018-03-24T21:36:05.589Z,21.55
2018-03-24T21:38:32.221Z,22.85
2018-03-24T21:40:58.759Z,19.85
2018-03-24T21:43:25.704Z,21.15
2018-03-24T21:45:52.308Z,23.65
2018-03-24T21:48:19.970Z,24.35
2018-03-24T21:50:47.386Z,24.60
2018-03-24T21:53:13.905Z,20.70
2018-03-24T21:55:40.716Z,28.67
2018-03-24T21:58:07.227Z,22.55
2018-03-24T22:00:34.518Z,22.70
2018-03-24T22:03:01.037Z,23.50
2018-03-24T22:05:27.568Z,23.42
2018-03-24T22:07:54.082Z,24.48
2018-03-24T22:10:20.656Z,26.75
2018-03-24T22:12:48.809Z,22.70
2018-03-24T22:15:15.550Z,23.65
2018-03-24T22:17:42.116Z,22.65
2018-03-24T22:20:08.691Z,24.17
2018-03-24T22:22:35.294Z,24.52
2018-03-24T22:25:01.800Z,25.35
2018-03-24T22:27:28.364Z,23.12
2018-03-24T22:29:54.888Z,24.35
2018-03-24T22:32:21.389Z,23.65
2018-03-24T22:34:47.972Z,25.30
2018-03-24T22:37:14.513Z,24.60
2018-03-24T22:39:41.082Z,24.98
2018-03-24T22:42:08.269Z,23.25
2018-03-24T22:44:34.798Z,21.83
2018-03-24T22:47:01.312Z,37.97
2018-03-24T22:49:27.855Z,31.27
2018-03-24T22:51:55.049Z,28.70
2018-03-24T22:54:22.366Z,26.00
2018-03-24T22:56:49.646Z,32.13
2018-03-24T22:59:16.188Z,27.33
2018-03-24T23:01:42.728Z,25.23
2018-03-24T23:04:09.247Z,44.63
2018-03-24T23:06:35.840Z,30.25
2018-03-24T23:09:03.090Z,25.08
2018-03-24T23:11:29.703Z,29.50
2018-03-24T23:13:56.311Z,26.98
2018-03-24T23:16:22.866Z,23.77
2018-03-24T23:18:49.420Z,25.92
2018-03-24T23:21:15.968Z,24.00
2018-03-24T23:23:42.481Z,26.40
2018-03-24T23:26:09.007Z,20.50
2018-03-24T23:28:35.540Z,21.10
2018-03-24T23:31:01.981Z,21.25
2018-03-24T23:33:28.532Z,24.30
2018-03-24T23:35:55.016Z,31.67
2018-03-24T23:38:21.475Z,20.58
2018-03-24T23:40:48.024Z,22.00
2018-03-24T23:43:14.604Z,20.37
2018-03-24T23:45:41.891Z,20.95
2018-03-24T23:48:08.323Z,20.70
2018-03-24T23:50:35.048Z,20.65
2018-03-24T23:53:01.504Z,19.17
2018-03-24T23:55:28.050Z,19.02
2018-03-24T23:57:54.520Z,20.20
